createdAt,value
2019-05-29T00:00:09.911Z,50.00
2019-05-29T00:03:15.919Z,50.10
2019-05-29T00:06:21.636Z,50.80
2019-05-29T00:09:27.283Z,50.20
2019-05-29T00:12:32.944Z,50.20
2019-05-29T00:15:38.704Z,50.10
2019-05-29T00:18:44.383Z,50.20
2019-05-29T00:21:50.100Z,50.10
2019-05-29T00:24:55.839Z,50.10
2019-05-29T00:28:01.596Z,50.00
2019-05-29T00:31:07.743Z,50.00
2019-05-29T00:34:13.547Z,50.00
2019-05-29T00:37:19.226Z,50.60
2019-05-29T00:40:26.520Z,49.90
2019-05-29T00:43:32.251Z,49.80
2019-05-29T00:46:37.868Z,49.80
2019-05-29T00:49:43.675Z,49.80
2019-05-29T00:52:49.297Z,50.00
2019-05-29T00:55:55.972Z,49.70
2019-05-29T00:59:01.700Z,49.70
2019-05-29T01:02:07.375Z,50.40
2019-05-29T01:05:13.934Z,49.60
2019-05-29T01:08:20.455Z,49.70
2019-05-29T01:11:27.975Z,49.50
2019-05-29T01:14:48.851Z,49.50
2019-05-29T01:17:40.967Z,49.50
2019-05-29T01:20:46.647Z,49.60
2019-05-29T01:23:52.275Z,49.50
2019-05-29T01:26:58.035Z,49.50
2019-05-29T01:30:03.819Z,49.40
2019-05-29T01:33:10.615Z,49.40
2019-05-29T01:36:16.252Z,49.50
2019-05-29T01:39:23.636Z,49.40
2019-05-29T01:42:29.259Z,49.30
2019-05-29T01:45:35.027Z,49.40
2019-05-29T01:48:40.672Z,49.50
2019-05-29T01:51:46.350Z,49.40
2019-05-29T01:54:52.011Z,49.30
2019-05-29T01:57:57.599Z,49.40
2019-05-29T02:01:03.433Z,49.30
2019-05-29T02:04:09.180Z,49.20
2019-05-29T02:07:15.829Z,49.30
2019-05-29T02:10:22.243Z,49.20
2019-05-29T02:13:27.951Z,49.30
2019-05-29T02:17:35.420Z,49.10
2019-05-29T02:20:41.100Z,49.10
2019-05-29T02:23:47.064Z,49.20
2019-05-29T02:26:54.410Z,49.10
2019-05-29T02:30:00.264Z,49.10
2019-05-29T02:33:05.960Z,49.10
2019-05-29T02:36:11.694Z,49.00
2019-05-29T02:39:18.674Z,49.00
2019-05-29T02:42:25.113Z,49.10
2019-05-29T02:45:50.301Z,49.00
2019-05-29T02:48:38.363Z,49.70
2019-05-29T02:51:43.990Z,49.00
2019-05-29T02:54:50.858Z,49.10
2019-05-29T02:57:56.523Z,48.90
2019-05-29T03:01:02.268Z,48.90
2019-05-29T03:04:09.123Z,48.90
2019-05-29T03:07:14.836Z,49.50
2019-05-29T03:10:20.454Z,48.90
2019-05-29T03:13:27.680Z,48.90
2019-05-29T03:16:34.861Z,48.90
2019-05-29T03:19:41.822Z,48.90
2019-05-29T03:22:47.469Z,48.60
2019-05-29T03:25:53.096Z,48.70
2019-05-29T03:28:58.744Z,48.70
2019-05-29T03:32:04.489Z,48.80
2019-05-29T03:35:10.280Z,48.70
2019-05-29T03:38:17.037Z,48.70
2019-05-29T03:41:22.714Z,48.20
2019-05-29T03:44:28.745Z,48.40
2019-05-29T03:47:35.050Z,48.60
2019-05-29T03:50:40.907Z,48.70
2019-05-29T03:53:47.595Z,48.70
2019-05-29T03:56:53.248Z,48.70
2019-05-29T03:59:58.984Z,48.80
2019-05-29T04:03:04.750Z,48.70
2019-05-29T04:06:12.096Z,48.80
2019-05-29T04:09:17.846Z,48.90
2019-05-29T04:12:23.441Z,48.60
2019-05-29T04:15:31.618Z,48.10
2019-05-29T04:18:38.212Z,48.60
2019-05-29T04:21:45.626Z,48.70
2019-05-29T04:24:55.512Z,48.70
2019-05-29T04:28:02.967Z,48.70
2019-05-29T04:31:08.600Z,48.80
2019-05-29T04:34:14.411Z,48.60
2019-05-29T04:37:20.047Z,48.60
2019-05-29T04:40:25.734Z,48.60
2019-05-29T04:43:33.234Z,48.60
2019-05-29T04:46:40.550Z,48.60
2019-05-29T04:49:46.133Z,48.50
2019-05-29T04:52:52.923Z,48.50
2019-05-29T04:55:58.760Z,48.50
2019-05-29T04:59:04.384Z,48.50
2019-05-29T05:02:10.166Z,48.50
2019-05-29T05:05:19.407Z,48.40
2019-05-29T05:08:23.800Z,48.40
2019-05-29T05:11:29.490Z,48.40
2019-05-29T05:14:35.658Z,48.40
2019-05-29T05:17:41.379Z,48.40
2019-05-29T05:20:47.095Z,48.40
2019-05-29T05:23:52.784Z,48.40
2019-05-29T05:26:58.508Z,48.50
2019-05-29T05:30:04.579Z,48.40
2019-05-29T05:33:10.413Z,48.50
2019-05-29T05:36:16.175Z,48.40
2019-05-29T05:39:22.050Z,48.40
2019-05-29T05:42:29.199Z,48.40
2019-05-29T05:45:35.143Z,48.40
2019-05-29T05:48:41.559Z,48.40
2019-05-29T05:51:47.505Z,48.40
2019-05-29T05:54:53.139Z,48.40
2019-05-29T05:57:58.920Z,48.40
2019-05-29T06:01:04.635Z,48.40
2019-05-29T06:04:10.427Z,48.30
2019-05-29T06:07:17.074Z,48.20
2019-05-29T06:10:22.722Z,48.20
2019-05-29T06:13:28.274Z,48.20
2019-05-29T06:16:34.464Z,48.30
2019-05-29T06:19:41.153Z,48.20
2019-05-29T06:22:46.980Z,48.00
2019-05-29T06:25:52.619Z,47.90
2019-05-29T06:28:58.260Z,48.30
2019-05-29T06:32:03.924Z,48.10
2019-05-29T06:35:09.796Z,48.10
2019-05-29T06:38:15.451Z,48.20
2019-05-29T06:41:21.127Z,48.10
2019-05-29T06:44:27.872Z,48.20
2019-05-29T06:47:36.279Z,48.20
2019-05-29T06:50:43.443Z,48.50
2019-05-29T06:53:49.180Z,48.30
2019-05-29T06:56:54.956Z,48.20
2019-05-29T07:00:00.592Z,48.30
2019-05-29T07:03:06.501Z,48.20
2019-05-29T07:06:13.929Z,48.30
2019-05-29T07:09:19.597Z,48.00
2019-05-29T07:12:25.268Z,48.20
2019-05-29T07:15:30.979Z,48.10
2019-05-29T07:18:36.792Z,48.10
2019-05-29T07:21:44.903Z,48.30
2019-05-29T07:24:50.673Z,48.30
2019-05-29T07:27:56.399Z,48.30
2019-05-29T07:31:03.857Z,48.30
2019-05-29T07:34:09.891Z,48.30
2019-05-29T07:37:15.584Z,48.60
2019-05-29T07:40:21.278Z,48.70
2019-05-29T07:43:28.002Z,48.70
2019-05-29T07:46:35.356Z,49.00
2019-05-29T07:49:44.445Z,48.40
2019-05-29T07:52:49.271Z,49.20
2019-05-29T07:55:55.403Z,49.40
2019-05-29T07:59:03.478Z,49.40
2019-05-29T08:02:08.619Z,49.50
2019-05-29T08:05:14.851Z,49.60
2019-05-29T08:08:20.571Z,49.50
2019-05-29T08:11:26.191Z,49.60
2019-05-29T08:14:32.725Z,49.60
2019-05-29T08:17:39.813Z,49.60
2019-05-29T08:20:45.980Z,49.70
2019-05-29T08:23:51.668Z,49.50
2019-05-29T08:26:58.343Z,49.20
2019-05-29T08:30:04.130Z,49.50
2019-05-29T08:33:09.874Z,49.40
2019-05-29T08:36:15.640Z,49.50
2019-05-29T08:39:35.466Z,49.60
2019-05-29T08:42:28.450Z,49.60
2019-05-29T08:45:34.251Z,49.60
2019-05-29T08:48:40.019Z,49.60
2019-05-29T08:51:46.010Z,49.60
2019-05-29T08:54:52.303Z,49.60
2019-05-29T08:57:58.986Z,49.70
2019-05-29T09:01:04.629Z,49.60
2019-05-29T09:04:10.375Z,49.90
2019-05-29T09:07:16.039Z,49.60
2019-05-29T09:10:22.776Z,47.50
2019-05-29T09:13:29.439Z,46.10
2019-05-29T09:16:37.090Z,45.10
2019-05-29T09:19:42.859Z,45.10
2019-05-29T09:22:48.467Z,45.10
2019-05-29T09:25:54.356Z,43.30
2019-05-29T09:29:00.150Z,41.20
2019-05-29T09:32:06.204Z,40.80
2019-05-29T09:35:15.599Z,40.50
2019-05-29T09:38:21.359Z,41.40
2019-05-29T09:41:27.054Z,41.70
2019-05-29T09:44:38.775Z,41.60
2019-05-29T09:47:40.032Z,41.50
2019-05-29T09:50:50.068Z,39.20
2019-05-29T09:53:54.494Z,37.30
2019-05-29T09:57:01.110Z,39.50
2019-05-29T10:00:08.635Z,40.10
2019-05-29T10:03:14.402Z,41.60
2019-05-29T10:06:20.012Z,38.80
2019-05-29T10:09:25.768Z,38.20
2019-05-29T10:12:31.471Z,40.40
2019-05-29T10:15:37.185Z,38.20
2019-05-29T10:18:43.194Z,37.90
2019-05-29T10:21:51.689Z,39.10
2019-05-29T10:25:01.854Z,38.60
2019-05-29T10:28:08.751Z,39.40
2019-05-29T10:31:14.436Z,41.00
2019-05-29T10:34:21.147Z,42.40
2019-05-29T10:37:29.624Z,40.50
2019-05-29T10:40:35.313Z,40.40
2019-05-29T10:43:40.950Z,40.70
2019-05-29T10:46:49.965Z,41.00
2019-05-29T10:49:55.235Z,41.20
2019-05-29T10:53:01.047Z,41.40
2019-05-29T10:56:06.751Z,41.60
2019-05-29T10:59:12.511Z,41.70
2019-05-29T11:02:18.292Z,41.80
2019-05-29T11:05:23.896Z,42.00
2019-05-29T11:08:29.540Z,42.10
2019-05-29T11:11:35.317Z,42.20
2019-05-29T11:14:40.972Z,42.20
2019-05-29T11:17:47.153Z,42.40
2019-05-29T11:20:53.436Z,42.50
2019-05-29T11:27:30.485Z,44.40
2019-05-29T11:30:36.296Z,48.00
2019-05-29T11:33:42.999Z,48.90
2019-05-29T11:36:49.888Z,47.60
2019-05-29T11:39:56.764Z,45.60
2019-05-29T11:43:03.233Z,45.70
2019-05-29T11:46:09.119Z,44.80
2019-05-29T11:49:14.913Z,44.30
2019-05-29T11:52:24.779Z,45.10
2019-05-29T11:55:28.146Z,46.30
2019-05-29T11:58:33.756Z,46.80
2019-05-29T12:01:49.766Z,45.60
2019-05-29T12:04:46.760Z,45.90
2019-05-29T12:07:53.452Z,45.90
2019-05-29T12:10:59.517Z,45.20
2019-05-29T12:14:05.492Z,45.60
2019-05-29T12:17:11.180Z,43.00
2019-05-29T12:20:27.854Z,43.00
2019-05-29T12:23:27.292Z,43.10
2019-05-29T12:26:33.051Z,43.20
2019-05-29T12:29:38.845Z,43.40
2019-05-29T12:32:44.544Z,43.50
2019-05-29T12:35:50.434Z,43.70
2019-05-29T12:38:57.826Z,43.90
2019-05-29T12:42:03.896Z,44.10
2019-05-29T12:45:11.210Z,44.60
2019-05-29T12:48:17.186Z,44.40
2019-05-29T12:51:22.927Z,44.40
2019-05-29T12:54:28.529Z,44.50
2019-05-29T12:57:34.294Z,45.30
2019-05-29T13:00:39.954Z,44.80
2019-05-29T13:03:46.077Z,44.80
2019-05-29T13:06:51.996Z,45.00
2019-05-29T13:09:58.795Z,45.00
2019-05-29T13:13:10.119Z,45.20
2019-05-29T13:16:11.923Z,45.30
2019-05-29T13:19:17.548Z,45.50
2019-05-29T13:22:24.153Z,45.40
2019-05-29T13:25:29.998Z,45.70
2019-05-29T13:28:35.632Z,45.90
2019-05-29T13:31:41.526Z,45.80
2019-05-29T13:34:47.144Z,46.00
2019-05-29T13:37:52.831Z,46.80
2019-05-29T13:40:58.574Z,46.30
2019-05-29T13:44:04.793Z,46.40
2019-05-29T13:47:11.964Z,46.10
2019-05-29T13:50:17.949Z,46.10
2019-05-29T13:53:23.741Z,46.20
2019-05-29T13:56:29.384Z,46.20
2019-05-29T13:59:35.021Z,46.20
2019-05-29T14:02:41.823Z,46.40
2019-05-29T14:05:47.537Z,46.50
2019-05-29T14:08:53.369Z,46.30
2019-05-29T14:11:59.113Z,46.50
2019-05-29T14:15:06.403Z,46.40
2019-05-29T14:18:13.009Z,46.40
2019-05-29T14:21:18.876Z,46.30
2019-05-29T14:24:29.737Z,46.40
2019-05-29T14:27:31.949Z,46.40
2019-05-29T14:30:39.605Z,46.40
2019-05-29T14:33:45.297Z,46.50
2019-05-29T14:36:50.920Z,46.40
2019-05-29T14:39:56.596Z,46.40
2019-05-29T14:43:05.400Z,46.30
2019-05-29T14:46:10.182Z,46.20
2019-05-29T14:49:26.686Z,46.10
2019-05-29T14:52:30.353Z,46.20
2019-05-29T14:55:38.051Z,46.10
2019-05-29T14:58:43.705Z,46.20
2019-05-29T15:01:51.304Z,46.20
2019-05-29T15:04:56.792Z,46.10
2019-05-29T15:08:03.775Z,46.10
2019-05-29T15:11:10.072Z,46.00
2019-05-29T15:14:15.779Z,46.00
2019-05-29T15:17:21.476Z,46.10
2019-05-29T15:20:27.082Z,46.00
2019-05-29T15:23:32.737Z,46.00
2019-05-29T15:26:38.389Z,46.00
2019-05-29T15:29:46.873Z,46.00
2019-05-29T15:32:53.653Z,46.00
2019-05-29T15:35:59.224Z,45.90
2019-05-29T15:39:06.640Z,46.00
2019-05-29T15:42:12.858Z,45.90
2019-05-29T15:45:18.939Z,45.80
2019-05-29T15:48:24.597Z,45.90
2019-05-29T15:51:30.305Z,45.80
2019-05-29T15:54:35.925Z,45.80
2019-05-29T15:57:41.700Z,45.80
2019-05-29T16:00:47.927Z,45.70
2019-05-29T16:03:53.583Z,45.60
2019-05-29T16:06:59.247Z,46.30
2019-05-29T16:10:05.458Z,45.60
2019-05-29T16:13:11.193Z,45.70
2019-05-29T16:16:17.294Z,45.80
2019-05-29T16:19:23.024Z,45.60
2019-05-29T16:22:28.668Z,45.60
2019-05-29T16:25:40.511Z,45.60
2019-05-29T16:28:43.307Z,45.40
2019-05-29T16:31:49.056Z,45.40
2019-05-29T16:34:54.811Z,45.30
2019-05-29T16:38:00.585Z,40.10
2019-05-29T16:41:06.372Z,41.40
2019-05-29T16:44:12.081Z,42.50
2019-05-29T16:47:18.645Z,43.30
2019-05-29T16:50:24.412Z,43.80
2019-05-29T16:53:30.223Z,42.90
2019-05-29T16:56:35.836Z,42.20
2019-05-29T16:59:41.605Z,43.60
2019-05-29T17:02:47.368Z,44.60
2019-05-29T17:05:53.050Z,45.20
2019-05-29T17:09:00.131Z,45.70
2019-05-29T17:12:06.152Z,45.90
2019-05-29T17:15:14.791Z,46.00
2019-05-29T17:18:20.872Z,46.20
2019-05-29T17:21:27.799Z,46.40
2019-05-29T17:24:33.592Z,46.40
2019-05-29T17:27:39.384Z,46.40
2019-05-29T17:30:47.729Z,51.80
2019-05-29T17:33:53.625Z,57.60
2019-05-29T17:36:59.513Z,59.70
2019-05-29T17:40:05.724Z,60.20
2019-05-29T17:43:11.456Z,59.90
2019-05-29T17:46:17.468Z,59.70
2019-05-29T17:49:33.007Z,62.00
2019-05-29T17:52:31.673Z,63.70
2019-05-29T17:55:37.431Z,64.60
2019-05-29T17:58:43.286Z,65.50
2019-05-29T18:01:50.967Z,66.40
2019-05-29T18:04:57.072Z,66.80
2019-05-29T18:08:02.785Z,67.20
2019-05-29T18:11:08.781Z,67.60
2019-05-29T18:14:14.489Z,68.30
2019-05-29T18:17:21.386Z,70.00
2019-05-29T18:20:27.877Z,69.60
2019-05-29T18:23:33.691Z,70.00
2019-05-29T18:26:46.884Z,70.10
2019-05-29T18:29:48.383Z,70.20
2019-05-29T18:32:54.012Z,70.90
2019-05-29T18:35:59.776Z,70.60
2019-05-29T18:39:07.563Z,71.00
2019-05-29T18:42:13.379Z,70.80
2019-05-29T18:45:22.758Z,71.20
2019-05-29T18:48:27.364Z,72.20
2019-05-29T18:51:33.093Z,71.10
2019-05-29T18:54:39.960Z,71.00
2019-05-29T18:57:45.908Z,71.60
2019-05-29T19:00:51.706Z,71.40
2019-05-29T19:03:58.421Z,71.40
2019-05-29T19:07:04.284Z,71.40
2019-05-29T19:10:11.247Z,71.30
2019-05-29T19:13:16.925Z,70.90
2019-05-29T19:16:23.884Z,71.10
2019-05-29T19:19:30.612Z,71.10
2019-05-29T19:22:36.201Z,71.10
2019-05-29T19:25:41.922Z,70.50
2019-05-29T19:28:55.902Z,70.60
2019-05-29T19:31:57.104Z,71.40
2019-05-29T19:35:02.961Z,70.70
2019-05-29T19:38:10.257Z,68.30
2019-05-29T19:41:17.438Z,67.20
2019-05-29T19:44:24.135Z,66.00
2019-05-29T19:47:30.731Z,65.30
2019-05-29T19:50:36.453Z,64.70
2019-05-29T19:53:42.311Z,64.00
2019-05-29T19:56:48.203Z,63.40
2019-05-29T19:59:54.030Z,63.10
2019-05-29T20:02:59.705Z,62.80
2019-05-29T20:06:05.636Z,62.70
2019-05-29T20:09:11.397Z,62.70
2019-05-29T20:12:17.289Z,62.70
2019-05-29T20:15:23.213Z,62.60
2019-05-29T20:18:29.993Z,63.50
2019-05-29T20:21:36.797Z,62.70
2019-05-29T20:24:42.653Z,62.70
2019-05-29T20:27:48.416Z,62.70
2019-05-29T20:30:54.092Z,62.70
2019-05-29T20:33:59.832Z,62.90
2019-05-29T20:37:06.356Z,62.90
2019-05-29T20:40:15.356Z,63.00
2019-05-29T20:43:21.293Z,63.10
2019-05-29T20:46:26.986Z,63.00
2019-05-29T20:49:33.871Z,63.10
2019-05-29T20:52:39.682Z,63.30
2019-05-29T20:55:45.400Z,63.20
2019-05-29T20:58:51.321Z,63.20
2019-05-29T21:01:57.149Z,63.30
2019-05-29T21:05:02.888Z,63.30
2019-05-29T21:08:09.982Z,63.40
2019-05-29T21:11:55.744Z,63.50
2019-05-29T21:15:01.612Z,63.60
2019-05-29T21:18:08.364Z,63.60
2019-05-29T21:21:14.133Z,63.80
2019-05-29T21:24:19.843Z,63.80
2019-05-29T21:27:25.539Z,63.90
2019-05-29T21:30:31.209Z,63.90
2019-05-29T21:33:38.082Z,63.80
2019-05-29T21:36:44.319Z,63.80
2019-05-29T21:39:49.992Z,63.90
2019-05-29T21:42:55.705Z,63.90
2019-05-29T21:46:01.408Z,65.10
2019-05-29T21:49:08.468Z,65.00
2019-05-29T21:52:14.443Z,65.10
2019-05-29T21:55:20.584Z,65.10
2019-05-29T21:58:26.309Z,65.20
2019-05-29T22:01:32.218Z,65.20
2019-05-29T22:04:38.400Z,65.20
2019-05-29T22:07:44.837Z,65.10
2019-05-29T22:10:51.423Z,65.00
2019-05-29T22:13:58.505Z,63.90
2019-05-29T22:17:04.513Z,64.10
2019-05-29T22:20:11.567Z,65.10
2019-05-29T22:23:17.657Z,68.20
2019-05-29T22:26:23.272Z,69.20
2019-05-29T22:29:29.052Z,69.40
2019-05-29T22:32:34.971Z,69.50
2019-05-29T22:35:40.670Z,69.40
2019-05-29T22:38:46.452Z,69.70
2019-05-29T22:41:53.227Z,69.60
2019-05-29T22:45:02.102Z,70.60
2019-05-29T22:48:08.088Z,69.70
2019-05-29T22:51:13.839Z,69.70
2019-05-29T22:54:20.545Z,69.80
2019-05-29T22:57:26.247Z,69.60
2019-05-29T23:00:32.187Z,68.70
2019-05-29T23:03:37.972Z,69.00
2019-05-29T23:06:45.018Z,68.30
2019-05-29T23:09:52.130Z,67.90
2019-05-29T23:13:01.113Z,67.40
2019-05-29T23:16:05.491Z,67.80
2019-05-29T23:19:11.406Z,67.00
2019-05-29T23:22:16.999Z,67.60
2019-05-29T23:25:22.676Z,66.40
2019-05-29T23:28:28.337Z,66.00
2019-05-29T23:31:34.068Z,65.90
2019-05-29T23:34:39.776Z,65.20
2019-05-29T23:37:45.473Z,65.20
2019-05-29T23:40:51.179Z,64.50
2019-05-29T23:43:57.428Z,64.00
2019-05-29T23:47:04.366Z,64.00
2019-05-29T23:50:10.580Z,63.80
2019-05-29T23:53:16.204Z,64.00
2019-05-29T23:56:22.016Z,63.70
2019-05-29T23:59:27.628Z,63.60
